createdAt,value
2019-04-06T00:01:00.286Z,81.50
2019-04-06T00:03:26.944Z,87.30
2019-04-06T00:05:53.637Z,76.73
2019-04-06T00:08:20.544Z,87.33
2019-04-06T00:10:47.275Z,84.97
2019-04-06T00:13:13.936Z,78.93
2019-04-06T00:15:40.698Z,82.87
2019-04-06T00:18:07.661Z,75.97
2019-04-06T00:20:34.288Z,77.40
2019-04-06T00:23:02.285Z,85.03
2019-04-06T00:25:29.028Z,80.47
2019-04-06T00:27:56.064Z,65.20
2019-04-06T00:30:23.795Z,78.30
2019-04-06T00:32:57.925Z,76.10
2019-04-06T00:35:24.732Z,83.60
2019-04-06T00:37:51.454Z,69.43
2019-04-06T00:40:18.181Z,69.23
2019-04-06T00:42:44.866Z,73.00
2019-04-06T00:45:12.037Z,71.43
2019-04-06T00:47:38.742Z,85.30
2019-04-06T00:50:06.018Z,75.50
2019-04-06T00:52:33.584Z,74.10
2019-04-06T00:55:00.367Z,70.37
2019-04-06T00:57:28.191Z,75.50
2019-04-06T00:59:55.098Z,71.20
2019-04-06T01:02:21.821Z,68.30
2019-04-06T01:04:48.600Z,72.50
2019-04-06T01:07:19.068Z,68.57
2019-04-06T01:09:46.419Z,67.50
2019-04-06T01:12:13.068Z,75.27
2019-04-06T01:14:39.909Z,73.90
2019-04-06T01:17:06.739Z,69.53
2019-04-06T01:19:34.333Z,61.43
2019-04-06T01:22:01.070Z,58.20
2019-04-06T01:24:27.828Z,57.03
2019-04-06T01:26:55.578Z,54.70
2019-04-06T01:29:23.703Z,49.70
2019-04-06T01:31:50.775Z,47.43
2019-04-06T01:34:20.052Z,53.40
2019-04-06T01:36:46.744Z,57.10
2019-04-06T01:39:13.702Z,43.73
2019-04-06T01:41:40.557Z,51.90
2019-04-06T01:44:08.708Z,54.97
2019-04-06T01:46:35.403Z,49.90
2019-04-06T01:49:02.171Z,56.07
2019-04-06T01:51:29.837Z,55.03
2019-04-06T01:53:56.574Z,52.83
2019-04-06T01:56:23.519Z,70.87
2019-04-06T01:58:50.119Z,62.80
2019-04-06T02:01:29.941Z,71.53
2019-04-06T02:03:57.728Z,51.67
2019-04-06T02:06:24.436Z,67.10
2019-04-06T02:08:51.196Z,74.20
2019-04-06T02:11:18.574Z,67.03
2019-04-06T02:13:45.407Z,66.03
2019-04-06T02:16:12.151Z,71.57
2019-04-06T02:18:39.285Z,72.10
2019-04-06T02:21:05.975Z,80.53
2019-04-06T02:23:32.678Z,78.43
2019-04-06T02:25:59.519Z,83.13
2019-04-06T02:28:26.084Z,89.07
2019-04-06T02:31:03.339Z,76.73
2019-04-06T02:33:53.430Z,85.83
2019-04-06T02:36:58.161Z,76.03
2019-04-06T02:39:35.396Z,92.53
2019-04-06T02:42:07.426Z,89.77
2019-04-06T02:44:34.335Z,91.10
2019-04-06T02:47:00.983Z,94.73
2019-04-06T02:49:28.101Z,103.30
2019-04-06T02:51:54.791Z,95.33
2019-04-06T02:54:21.640Z,93.13
2019-04-06T02:56:48.475Z,98.43
2019-04-06T02:59:15.793Z,95.77
2019-04-06T03:01:43.829Z,96.97
2019-04-06T03:04:10.745Z,106.60
2019-04-06T03:06:38.369Z,104.83
2019-04-06T03:09:05.548Z,93.93
2019-04-06T03:11:32.228Z,101.40
2019-04-06T03:13:59.091Z,105.97
2019-04-06T03:16:25.711Z,112.50
2019-04-06T03:18:52.593Z,113.97
2019-04-06T03:21:19.512Z,117.53
2019-04-06T03:23:51.491Z,99.83
2019-04-06T03:26:14.906Z,97.97
2019-04-06T03:28:41.618Z,104.30
2019-04-06T03:31:09.370Z,125.07
2019-04-06T03:33:36.426Z,116.03
2019-04-06T03:36:03.478Z,117.00
2019-04-06T03:38:30.301Z,133.07
2019-04-06T03:40:57.080Z,128.70
2019-04-06T03:43:23.833Z,135.40
2019-04-06T03:45:50.815Z,122.33
2019-04-06T03:48:18.081Z,111.87
2019-04-06T03:50:44.812Z,103.30
2019-04-06T03:53:11.820Z,118.00
2019-04-06T03:55:39.866Z,134.03
2019-04-06T03:58:06.490Z,107.97
2019-04-06T04:00:33.153Z,104.60
2019-04-06T04:03:00.091Z,106.57
2019-04-06T04:05:27.318Z,121.03
2019-04-06T04:07:54.015Z,90.07
2019-04-06T04:10:37.911Z,99.37
2019-04-06T04:13:05.643Z,104.10
2019-04-06T04:15:33.674Z,103.80
2019-04-06T04:18:00.389Z,103.33
2019-04-06T04:20:27.130Z,111.73
2019-04-06T04:22:53.675Z,94.07
2019-04-06T04:25:20.354Z,101.97
2019-04-06T04:27:47.105Z,100.27
2019-04-06T04:30:15.615Z,103.70
2019-04-06T04:32:42.607Z,97.27
2019-04-06T04:35:09.619Z,109.17
2019-04-06T04:37:36.981Z,113.03
2019-04-06T04:40:04.414Z,99.33
2019-04-06T04:42:31.177Z,87.70
2019-04-06T04:44:58.013Z,91.10
2019-04-06T04:47:24.998Z,96.87
2019-04-06T04:49:51.759Z,102.27
2019-04-06T04:52:18.560Z,93.93
2019-04-06T04:54:45.130Z,88.10
2019-04-06T04:57:11.895Z,104.77
2019-04-06T04:59:40.211Z,120.03
2019-04-06T05:02:07.687Z,109.17
2019-04-06T05:04:35.972Z,143.53
2019-04-06T05:07:03.978Z,138.23
2019-04-06T05:09:30.996Z,149.43
2019-04-06T05:11:58.138Z,136.97
2019-04-06T05:14:57.848Z,153.57
2019-04-06T05:17:25.073Z,144.13
2019-04-06T05:19:53.148Z,159.30
2019-04-06T05:22:19.793Z,142.40
2019-04-06T05:24:46.444Z,152.67
2019-04-06T05:27:13.377Z,155.90
2019-04-06T05:29:40.824Z,155.43
2019-04-06T05:32:07.492Z,140.27
2019-04-06T05:34:35.317Z,156.60
2019-04-06T05:37:02.148Z,141.83
2019-04-06T05:39:29.915Z,134.47
2019-04-06T05:41:57.013Z,130.10
2019-04-06T05:44:23.662Z,135.03
2019-04-06T05:46:50.603Z,141.00
2019-04-06T05:49:17.311Z,155.10
2019-04-06T05:51:44.019Z,156.27
2019-04-06T05:54:11.302Z,157.87
2019-04-06T05:56:37.933Z,160.00
2019-04-06T05:59:04.717Z,182.43
2019-04-06T06:01:31.342Z,162.97
2019-04-06T06:03:58.004Z,181.20
2019-04-06T06:06:24.673Z,163.87
2019-04-06T06:08:51.327Z,174.73
2019-04-06T06:11:18.300Z,160.97
2019-04-06T06:13:45.324Z,163.60
2019-04-06T06:16:14.000Z,172.40
2019-04-06T06:18:40.587Z,153.13
2019-04-06T06:21:07.236Z,158.33
2019-04-06T06:23:34.968Z,150.13
2019-04-06T06:26:01.627Z,122.93
2019-04-06T06:28:28.592Z,132.07
2019-04-06T06:30:55.999Z,134.07
2019-04-06T06:33:22.711Z,143.17
2019-04-06T06:35:49.868Z,128.17
2019-04-06T06:38:16.429Z,128.40
2019-04-06T06:40:43.489Z,124.33
2019-04-06T06:43:11.641Z,127.33
2019-04-06T06:45:38.593Z,103.63
2019-04-06T06:48:05.492Z,105.00
2019-04-06T06:50:34.513Z,101.40
2019-04-06T06:53:01.240Z,99.37
2019-04-06T06:55:28.418Z,82.73
2019-04-06T06:57:55.280Z,81.70
2019-04-06T07:00:23.239Z,87.77
2019-04-06T07:02:49.964Z,77.90
2019-04-06T07:05:17.097Z,74.80
2019-04-06T07:07:44.316Z,78.27
2019-04-06T07:10:13.142Z,76.30
2019-04-06T07:12:39.843Z,72.70
2019-04-06T07:15:07.617Z,72.40
2019-04-06T07:17:34.302Z,70.00
2019-04-06T07:20:01.039Z,68.50
2019-04-06T07:22:27.886Z,70.00
2019-04-06T07:24:55.737Z,65.90
2019-04-06T07:27:24.552Z,64.63
2019-04-06T07:29:54.587Z,59.50
2019-04-06T07:32:21.648Z,65.40
2019-04-06T07:34:48.681Z,63.83
2019-04-06T07:37:15.627Z,62.30
2019-04-06T07:39:42.279Z,59.08
2019-04-06T07:42:09.026Z,53.63
2019-04-06T07:44:35.810Z,58.63
2019-04-06T07:47:02.763Z,60.07
2019-04-06T07:49:29.406Z,58.23
2019-04-06T07:51:56.010Z,54.10
2019-04-06T07:54:26.134Z,55.88
2019-04-06T07:56:52.806Z,58.07
2019-04-06T07:59:21.685Z,54.48
2019-04-06T08:01:49.061Z,58.52
2019-04-06T08:04:16.249Z,52.35
2019-04-06T08:06:43.129Z,58.90
2019-04-06T08:09:11.113Z,56.65
2019-04-06T08:11:38.403Z,52.58
2019-04-06T08:14:05.976Z,53.43
2019-04-06T08:16:33.091Z,55.23
2019-04-06T08:18:59.723Z,56.90
2019-04-06T08:21:26.535Z,51.03
2019-04-06T08:23:54.720Z,54.57
2019-04-06T08:26:21.980Z,49.00
2019-04-06T08:28:59.687Z,48.83
2019-04-06T08:31:17.530Z,54.65
2019-04-06T08:33:44.355Z,51.68
2019-04-06T08:36:11.095Z,48.45
2019-04-06T08:38:37.831Z,47.88
2019-04-06T08:41:05.495Z,48.52
2019-04-06T08:43:32.453Z,45.50
2019-04-06T08:45:59.220Z,47.90
2019-04-06T08:48:26.014Z,44.55
2019-04-06T08:50:52.609Z,45.45
2019-04-06T08:53:20.274Z,43.85
2019-04-06T08:55:47.142Z,38.10
2019-04-06T08:58:13.698Z,45.23
2019-04-06T09:00:40.643Z,42.23
2019-04-06T09:03:07.428Z,38.90
2019-04-06T09:05:36.088Z,39.90
2019-04-06T09:08:04.323Z,41.53
2019-04-06T09:10:31.304Z,42.85
2019-04-06T09:12:58.743Z,37.95
2019-04-06T09:15:25.456Z,41.65
2019-04-06T09:17:52.383Z,37.73
2019-04-06T09:20:19.176Z,39.55
2019-04-06T09:22:45.828Z,40.60
2019-04-06T09:25:12.658Z,39.38
2019-04-06T09:27:39.870Z,43.70
2019-04-06T09:30:06.964Z,42.13
2019-04-06T09:32:33.874Z,43.78
2019-04-06T09:35:00.872Z,43.70
2019-04-06T09:37:28.569Z,41.37
2019-04-06T09:39:55.394Z,44.27
2019-04-06T09:42:22.413Z,35.95
2019-04-06T09:45:18.526Z,35.10
2019-04-06T09:48:10.639Z,38.45
2019-04-06T09:50:55.116Z,34.20
2019-04-06T09:53:48.851Z,33.95
2019-04-06T09:56:47.286Z,39.00
2019-04-06T09:59:35.876Z,37.05
2019-04-06T10:02:11.464Z,35.98
2019-04-06T10:04:56.930Z,35.30
2019-04-06T10:07:46.924Z,32.35
2019-04-06T10:10:32.748Z,37.73
2019-04-06T10:13:17.604Z,36.30
2019-04-06T10:15:57.461Z,33.73
2019-04-06T10:18:40.999Z,33.18
2019-04-06T10:21:29.574Z,36.77
2019-04-06T10:24:34.178Z,34.88
2019-04-06T10:27:20.853Z,35.83
2019-04-06T10:29:58.314Z,32.70
2019-04-06T10:32:31.587Z,34.38
2019-04-06T10:35:16.116Z,33.85
2019-04-06T10:37:51.899Z,33.78
2019-04-06T10:40:40.824Z,35.63
2019-04-06T10:43:21.031Z,37.38
2019-04-06T10:46:06.144Z,34.40
2019-04-06T10:48:52.531Z,35.48
2019-04-06T10:51:40.328Z,34.10
2019-04-06T10:54:38.418Z,34.70
2019-04-06T10:57:21.668Z,35.00
2019-04-06T11:00:03.379Z,39.90
2019-04-06T11:02:49.578Z,34.83
2019-04-06T11:05:38.744Z,34.33
2019-04-06T11:08:19.971Z,40.12
2019-04-06T11:11:24.597Z,35.45
2019-04-06T11:14:09.805Z,35.78
2019-04-06T11:16:47.771Z,33.83
2019-04-06T11:19:37.277Z,33.85
2019-04-06T11:22:24.052Z,35.78
2019-04-06T11:25:08.785Z,38.10
2019-04-06T11:28:10.020Z,39.50
2019-04-06T11:30:53.349Z,34.10
2019-04-06T11:33:27.157Z,36.45
2019-04-06T11:36:19.878Z,36.90
2019-04-06T11:39:15.032Z,35.98
2019-04-06T11:42:00.039Z,38.67
2019-04-06T11:44:45.193Z,35.03
2019-04-06T11:47:31.335Z,31.10
2019-04-06T11:50:26.707Z,32.75
2019-04-06T11:53:01.067Z,30.97
2019-04-06T11:55:35.203Z,32.28
2019-04-06T11:58:11.305Z,30.85
2019-04-06T12:01:01.336Z,29.87
2019-04-06T12:03:38.806Z,29.63
2019-04-06T12:06:24.466Z,28.02
2019-04-06T12:09:17.111Z,26.55
2019-04-06T12:11:53.563Z,30.82
2019-04-06T12:14:25.835Z,28.47
2019-04-06T12:17:01.065Z,24.12
2019-04-06T12:19:59.758Z,27.25
2019-04-06T12:22:46.381Z,24.25
2019-04-06T12:25:41.940Z,24.92
2019-04-06T12:28:24.485Z,23.47
2019-04-06T12:31:01.880Z,23.62
2019-04-06T12:33:42.179Z,24.07
2019-04-06T12:36:28.781Z,22.90
2019-04-06T12:39:15.333Z,22.40
2019-04-06T12:42:00.779Z,23.27
2019-04-06T12:44:46.174Z,24.12
2019-04-06T12:47:26.942Z,23.02
2019-04-06T12:50:07.762Z,21.60
2019-04-06T12:53:09.137Z,25.90
2019-04-06T12:55:58.879Z,23.60
2019-04-06T12:58:47.848Z,24.10
2019-04-06T13:01:37.153Z,23.87
2019-04-06T13:04:23.870Z,24.95
2019-04-06T13:07:19.210Z,26.57
2019-04-06T13:09:52.111Z,24.82
2019-04-06T13:12:58.170Z,23.87
2019-04-06T13:15:32.081Z,25.27
2019-04-06T13:18:05.166Z,23.65
2019-04-06T13:21:00.461Z,24.50
2019-04-06T13:23:46.348Z,23.95
2019-04-06T13:26:35.502Z,23.07
2019-04-06T13:29:41.175Z,25.65
2019-04-06T13:32:31.892Z,22.62
2019-04-06T13:35:17.318Z,21.52
2019-04-06T13:38:22.099Z,21.35
2019-04-06T13:41:17.602Z,22.05
2019-04-06T13:44:09.743Z,23.20
2019-04-06T13:46:56.053Z,23.50
2019-04-06T13:49:51.837Z,22.07
2019-04-06T13:52:27.587Z,21.75
2019-04-06T13:55:05.371Z,22.75
2019-04-06T13:58:06.624Z,19.67
2019-04-06T14:00:42.321Z,20.43
2019-04-06T14:03:40.588Z,21.93
2019-04-06T14:06:19.990Z,19.12
2019-04-06T14:08:53.349Z,21.97
2019-04-06T14:11:45.508Z,18.77
2019-04-06T14:14:37.971Z,16.87
2019-04-06T14:17:37.270Z,19.37
2019-04-06T14:20:22.929Z,19.52
2019-04-06T14:23:02.003Z,22.25
2019-04-06T14:25:37.161Z,26.42
2019-04-06T14:28:23.419Z,26.50
2019-04-06T14:31:02.968Z,30.82
2019-04-06T14:33:52.472Z,25.80
2019-04-06T14:36:50.747Z,26.12
2019-04-06T14:39:36.200Z,28.52
2019-04-06T14:42:21.731Z,28.83
2019-04-06T14:45:09.208Z,27.42
2019-04-06T14:47:46.472Z,28.32
2019-04-06T14:50:26.372Z,28.75
2019-04-06T14:53:11.576Z,27.30
2019-04-06T14:55:59.005Z,28.73
2019-04-06T14:58:48.661Z,26.17
2019-04-06T15:01:38.495Z,25.77
2019-04-06T15:04:13.532Z,26.48
2019-04-06T15:06:46.997Z,53.83
2019-04-06T15:09:20.108Z,64.42
2019-04-06T15:12:15.663Z,35.35
2019-04-06T15:15:00.554Z,45.52
2019-04-06T15:17:39.135Z,30.48
2019-04-06T15:20:11.557Z,28.87
2019-04-06T15:23:07.050Z,28.10
2019-04-06T15:25:48.942Z,30.70
2019-04-06T15:28:47.482Z,24.50
2019-04-06T15:31:32.594Z,39.05
2019-04-06T15:34:24.620Z,68.97
2019-04-06T15:36:58.641Z,35.33
2019-04-06T15:39:34.204Z,33.33
2019-04-06T15:42:10.591Z,32.23
2019-04-06T15:44:55.425Z,31.73
2019-04-06T15:47:38.388Z,34.20
2019-04-06T15:50:17.871Z,31.02
2019-04-06T15:53:09.185Z,32.28
2019-04-06T15:55:45.366Z,29.55
2019-04-06T15:58:41.699Z,30.68
2019-04-06T16:01:28.496Z,46.10
2019-04-06T16:04:15.717Z,33.90
2019-04-06T16:06:56.488Z,32.93
2019-04-06T16:09:41.889Z,31.65
2019-04-06T16:12:32.090Z,34.27
2019-04-06T16:15:18.437Z,30.88
2019-04-06T16:18:07.299Z,29.92
2019-04-06T16:20:39.137Z,31.30
2019-04-06T16:23:28.056Z,30.68
2019-04-06T16:26:02.975Z,30.48
2019-04-06T16:28:48.056Z,30.77
2019-04-06T16:31:22.825Z,30.92
2019-04-06T16:34:07.852Z,30.55
2019-04-06T16:36:43.159Z,32.67
2019-04-06T16:39:21.767Z,33.98
2019-04-06T16:42:19.962Z,32.20
2019-04-06T16:45:21.670Z,30.23
2019-04-06T16:47:55.137Z,32.78
2019-04-06T16:50:44.313Z,32.17
2019-04-06T16:53:44.958Z,32.05
2019-04-06T16:56:41.523Z,31.85
2019-04-06T16:59:22.109Z,34.30
2019-04-06T17:02:06.938Z,31.25
2019-04-06T17:04:44.292Z,33.15
2019-04-06T17:07:32.323Z,33.92
2019-04-06T17:10:24.150Z,32.65
2019-04-06T17:13:01.052Z,30.65
2019-04-06T17:15:48.061Z,29.10
2019-04-06T17:18:47.099Z,31.45
2019-04-06T17:21:22.943Z,27.45
2019-04-06T17:24:11.272Z,36.90
2019-04-06T17:26:53.703Z,31.15
2019-04-06T17:29:46.140Z,30.80
2019-04-06T17:32:20.713Z,32.78
2019-04-06T17:35:07.372Z,29.52
2019-04-06T17:37:44.503Z,29.18
2019-04-06T17:40:34.579Z,29.90
2019-04-06T17:43:30.664Z,33.02
2019-04-06T17:46:23.780Z,32.17
2019-04-06T17:49:11.415Z,34.53
2019-04-06T17:52:00.880Z,32.67
2019-04-06T17:54:37.335Z,33.15
2019-04-06T17:57:22.347Z,34.05
2019-04-06T17:59:57.807Z,35.98
2019-04-06T18:02:59.143Z,32.88
2019-04-06T18:05:42.703Z,34.30
2019-04-06T18:08:33.664Z,35.80
2019-04-06T18:11:11.301Z,37.15
2019-04-06T18:13:48.143Z,37.10
2019-04-06T18:16:16.611Z,33.30
2019-04-06T18:18:45.639Z,33.55
2019-04-06T18:21:13.558Z,36.58
2019-04-06T18:23:40.365Z,41.70
2019-04-06T18:26:07.245Z,37.53
2019-04-06T18:28:34.029Z,36.08
2019-04-06T18:31:09.329Z,38.10
2019-04-06T18:33:38.093Z,37.83
2019-04-06T18:36:04.762Z,36.23
2019-04-06T18:38:37.624Z,36.93
2019-04-06T18:41:04.800Z,33.78
2019-04-06T18:43:32.718Z,35.95
2019-04-06T18:46:01.226Z,38.17
2019-04-06T18:48:28.128Z,35.63
2019-04-06T18:50:55.381Z,37.13
2019-04-06T18:53:22.081Z,37.77
2019-04-06T18:55:48.619Z,38.13
2019-04-06T18:58:15.986Z,41.43
2019-04-06T19:00:42.623Z,35.33
2019-04-06T19:03:13.921Z,34.90
2019-04-06T19:05:38.091Z,36.58
2019-04-06T19:08:05.218Z,35.43
2019-04-06T19:10:31.828Z,38.85
2019-04-06T19:12:58.724Z,36.03
2019-04-06T19:15:28.569Z,36.43
2019-04-06T19:17:55.303Z,38.90
2019-04-06T19:20:22.535Z,39.47
2019-04-06T19:22:49.566Z,38.50
2019-04-06T19:25:16.348Z,38.50
2019-04-06T19:27:43.219Z,37.50
2019-04-06T19:30:10.232Z,37.98
2019-04-06T19:32:37.692Z,37.67
2019-04-06T19:35:06.648Z,39.03
2019-04-06T19:37:33.232Z,37.42
2019-04-06T19:40:00.605Z,40.00
2019-04-06T19:42:28.610Z,39.07
2019-04-06T19:44:55.962Z,37.40
2019-04-06T19:47:22.653Z,40.07
2019-04-06T19:49:50.487Z,40.63
2019-04-06T19:52:17.568Z,41.70
2019-04-06T19:54:44.228Z,38.67
2019-04-06T19:57:10.925Z,40.00
2019-04-06T19:59:37.652Z,38.50
2019-04-06T20:02:04.306Z,42.83
2019-04-06T20:04:30.965Z,40.03
2019-04-06T20:06:58.013Z,43.60
2019-04-06T20:09:27.823Z,43.73
2019-04-06T20:12:04.277Z,38.13
2019-04-06T20:14:23.092Z,42.67
2019-04-06T20:16:51.226Z,47.58
2019-04-06T20:19:18.006Z,41.80
2019-04-06T20:21:44.664Z,43.00
2019-04-06T20:24:12.747Z,43.37
2019-04-06T20:26:40.116Z,45.07
2019-04-06T20:29:06.746Z,44.03
2019-04-06T20:31:34.085Z,41.87
2019-04-06T20:34:01.089Z,43.03
2019-04-06T20:36:27.712Z,38.70
2019-04-06T20:38:54.867Z,42.70
2019-04-06T20:41:21.566Z,40.83
2019-04-06T20:43:49.495Z,45.43
2019-04-06T20:46:16.377Z,45.13
2019-04-06T20:48:42.984Z,42.27
2019-04-06T20:51:11.190Z,42.03
2019-04-06T20:53:43.132Z,41.37
2019-04-06T20:56:09.740Z,41.83
2019-04-06T20:58:36.327Z,41.40
2019-04-06T21:01:06.609Z,41.23
2019-04-06T21:03:33.592Z,44.10
2019-04-06T21:06:01.049Z,47.77
2019-04-06T21:08:27.896Z,43.50
2019-04-06T21:10:58.939Z,44.73
2019-04-06T21:13:25.577Z,47.00
2019-04-06T21:15:53.342Z,44.57
2019-04-06T21:18:20.205Z,53.47
2019-04-06T21:20:47.328Z,48.30
2019-04-06T21:23:15.564Z,45.73
2019-04-06T21:25:42.116Z,46.07
2019-04-06T21:28:09.081Z,49.77
2019-04-06T21:30:35.718Z,44.90
2019-04-06T21:33:02.346Z,48.63
2019-04-06T21:35:30.401Z,48.77
2019-04-06T21:37:57.081Z,47.37
2019-04-06T21:40:23.620Z,48.70
2019-04-06T21:42:50.402Z,53.53
2019-04-06T21:45:17.087Z,51.73
2019-04-06T21:47:44.322Z,49.47
2019-04-06T21:50:11.637Z,51.83
2019-04-06T21:52:38.868Z,48.03
2019-04-06T21:55:07.761Z,43.97
2019-04-06T21:57:34.534Z,48.50
2019-04-06T22:00:02.202Z,49.37
2019-04-06T22:02:31.078Z,48.03
2019-04-06T22:04:57.907Z,46.30
2019-04-06T22:07:25.459Z,46.57
2019-04-06T22:09:52.660Z,45.97
2019-04-06T22:12:19.275Z,44.17
2019-04-06T22:14:46.179Z,47.43
2019-04-06T22:17:13.139Z,46.17
2019-04-06T22:19:40.886Z,51.10
2019-04-06T22:22:08.148Z,47.70
2019-04-06T22:24:34.776Z,49.20
2019-04-06T22:27:01.849Z,47.63
2019-04-06T22:29:28.879Z,48.03
2019-04-06T22:31:55.472Z,49.17
2019-04-06T22:34:34.048Z,50.83
2019-04-06T22:36:50.710Z,46.50
2019-04-06T22:39:17.314Z,51.50
2019-04-06T22:41:43.994Z,48.63
2019-04-06T22:44:11.074Z,52.40
2019-04-06T22:46:38.156Z,45.07
2019-04-06T22:49:05.604Z,47.33
2019-04-06T22:51:32.801Z,44.87
2019-04-06T22:54:00.176Z,44.87
2019-04-06T22:56:28.113Z,46.20
2019-04-06T22:58:54.977Z,46.87
2019-04-06T23:01:23.021Z,46.67
2019-04-06T23:04:06.480Z,44.00
2019-04-06T23:06:36.797Z,49.63
2019-04-06T23:09:06.192Z,48.27
2019-04-06T23:11:33.158Z,44.53
2019-04-06T23:13:59.849Z,48.20
2019-04-06T23:16:26.518Z,46.20
2019-04-06T23:18:54.116Z,47.37
2019-04-06T23:21:21.777Z,51.77
2019-04-06T23:23:48.928Z,47.23
2019-04-06T23:26:16.965Z,50.17
2019-04-06T23:28:44.632Z,45.73
2019-04-06T23:31:11.866Z,45.30
2019-04-06T23:33:38.973Z,45.00
2019-04-06T23:36:06.650Z,46.70
2019-04-06T23:38:33.793Z,48.30
2019-04-06T23:41:01.158Z,45.83
2019-04-06T23:43:27.764Z,48.13
2019-04-06T23:45:55.481Z,48.83
2019-04-06T23:48:22.048Z,50.17
2019-04-06T23:50:49.886Z,48.30
2019-04-06T23:53:16.975Z,44.90
2019-04-06T23:55:44.615Z,53.27
2019-04-06T23:58:11.776Z,45.87
